Time;durP1;ratioP1;P1;durP2;ratioP2;P2;SDS_P1;SDS_P2;PMS_P1;PMS_P2;Temp;Humidity;BMP_temperature;BMP_pressure;BME280_temperature;BME280_humidity;BME280_pressure;Samples;Min_cycle;Max_cycle;Signal;HPM_P1;HPM_P2
2022/05/27 00:00:33;;;;;;;;;3.00;1.00;;;;;15.86;72.04;101924.16;5052608;28;8998;-66
2022/05/27 00:03:00;;;;;;;;;2.00;1.67;;;;;15.85;71.76;101917.03;5040796;28;9014;-66
2022/05/27 00:05:26;;;;;;;;;2.00;1.00;;;;;15.83;71.99;101915.34;5032376;28;8989;-66
2022/05/27 00:07:53;;;;;;;;;1.33;1.33;;;;;15.82;71.79;101919.13;5045683;28;8975;-66
2022/05/27 00:10:19;;;;;;;;;1.00;1.00;;;;;15.77;71.43;101926.19;5052387;28;9690;-66
2022/05/27 00:12:46;;;;;;;;;1.00;1.00;;;;;15.68;71.50;101922.81;5052078;28;8978;-66
2022/05/27 00:15:12;;;;;;;;;1.67;1.67;;;;;15.56;71.24;101925.25;5051310;28;8956;-66
2022/05/27 00:17:39;;;;;;;;;1.33;1.33;;;;;15.44;71.86;101932.25;5051530;28;9067;-66
2022/05/27 00:20:06;;;;;;;;;1.00;1.00;;;;;15.40;72.07;101924.72;5052315;28;8991;-66
2022/05/27 00:22:33;;;;;;;;;1.00;1.00;;;;;15.41;72.09;101927.22;5051839;28;8993;-66
2022/05/27 00:24:59;;;;;;;;;4.67;3.00;;;;;15.41;71.84;101921.81;5052122;28;9166;-66
2022/05/27 00:27:26;;;;;;;;;1.00;1.00;;;;;15.38;72.01;101922.19;5051493;28;9012;-66
2022/05/27 00:29:52;;;;;;;;;2.00;2.00;;;;;15.38;72.22;101927.63;5050986;28;9075;-66
2022/05/27 00:32:28;;;;;;;;;3.00;1.00;;;;;15.36;72.04;101923.44;5051734;28;9178;-66
2022/05/27 00:34:55;;;;;;;;;3.00;2.00;;;;;15.30;72.38;101916.94;5051073;28;9064;-66
2022/05/27 00:37:22;;;;;;;;;2.00;1.33;;;;;15.30;72.68;101920.47;5051550;28;9128;-65
2022/05/27 00:39:48;;;;;;;;;2.33;2.00;;;;;15.33;72.72;101919.25;5052038;28;9058;-67
2022/05/27 00:42:15;;;;;;;;;1.00;1.00;;;;;15.38;72.70;101907.78;5051699;28;9204;-66
2022/05/27 00:44:41;;;;;;;;;1.67;1.67;;;;;15.40;72.53;101903.03;5051744;28;9677;-66
2022/05/27 00:47:12;;;;;;;;;3.00;3.00;;;;;15.41;72.31;101900.09;5048890;28;9079;-66
2022/05/27 00:49:45;;;;;;;;;2.00;2.00;;;;;15.42;72.06;101911.78;5031913;28;8983;-66
2022/05/27 00:52:16;;;;;;;;;1.00;1.00;;;;;15.45;72.54;101906.81;5039893;28;8993;-66
2022/05/27 00:54:44;;;;;;;;;1.00;1.00;;;;;15.43;72.32;101902.59;5050962;28;9730;-66
2022/05/27 00:57:20;;;;;;;;;3.67;2.00;;;;;15.45;72.46;101900.53;5038595;28;9020;-66
2022/05/27 00:59:54;;;;;;;;;1.33;1.33;;;;;15.48;72.05;101905.56;5051493;28;9018;-66
2022/05/27 01:02:20;;;;;;;;;4.00;3.00;;;;;15.48;72.09;101894.72;5049655;28;9839;-66
2022/05/27 01:04:49;;;;;;;;;2.75;2.00;;;;;15.47;71.79;101899.28;5050238;28;9854;-66
2022/05/27 01:07:16;;;;;;;;;3.00;3.00;;;;;15.44;71.79;101899.72;5050332;28;9567;-66
2022/05/27 01:09:47;;;;;;;;;1.67;0.67;;;;;15.42;71.82;101898.22;5051358;28;9048;-66
2022/05/27 01:12:38;;;;;;;;;1.50;1.00;;;;;15.40;71.91;101908.44;5050958;28;8902;-66
2022/05/27 01:15:42;;;;;;;;;1.00;1.00;;;;;15.36;71.78;101899.03;5051257;28;9595;-66
2022/05/27 01:21:45;;;;;;;;;4.00;3.00;;;;;15.28;71.72;101900.03;5050702;28;8986;-66
2022/05/27 01:24:44;;;;;;;;;2.33;2.33;;;;;15.32;71.73;101904.84;5039335;28;9133;-66
2022/05/27 01:27:41;;;;;;;;;1.33;1.33;;;;;15.30;71.28;101912.34;5038171;28;8998;-68
2022/05/27 01:30:21;;;;;;;;;2.00;2.00;;;;;15.23;71.47;101914.19;5051036;28;9053;-68
2022/05/27 01:33:08;;;;;;;;;2.00;2.00;;;;;15.25;71.34;101922.13;5043708;28;8898;-67
2022/05/27 01:35:44;;;;;;;;;2.67;1.67;;;;;15.29;71.54;101907.13;5050754;28;8998;-67
2022/05/27 01:38:29;;;;;;;;;2.00;2.00;;;;;15.28;71.26;101911.72;5048970;28;8989;-67
2022/05/27 01:41:32;;;;;;;;;2.00;1.00;;;;;15.31;71.27;101915.88;5051066;28;9063;-67
2022/05/27 01:44:11;;;;;;;;;1.67;1.67;;;;;15.29;71.05;101918.81;5030840;28;8890;-68
2022/05/27 01:46:43;;;;;;;;;1.33;0.67;;;;;15.30;70.95;101911.50;5033520;28;9083;-67
2022/05/27 01:49:22;;;;;;;;;1.00;1.00;;;;;15.27;70.81;101910.03;5050670;28;8905;-67
2022/05/27 01:51:55;;;;;;;;;0.00;0.00;;;;;15.25;70.88;101914.81;5045435;28;8898;-67
2022/05/27 01:54:38;;;;;;;;;0.67;0.67;;;;;15.30;70.66;101923.19;5050682;28;8969;-67
2022/05/27 01:57:15;;;;;;;;;0.33;0.33;;;;;15.31;70.37;101915.88;5049963;28;9019;-67
2022/05/27 01:59:47;;;;;;;;;0.00;0.00;;;;;15.30;70.45;101914.22;5050597;28;9012;-67
2022/05/27 02:02:19;;;;;;;;;0.25;0.25;;;;;15.30;70.21;101925.91;5050302;28;9607;-67
2022/05/27 02:05:02;;;;;;;;;1.00;1.00;;;;;15.29;70.11;101926.94;5049316;28;8818;-67
2022/05/27 02:07:39;;;;;;;;;1.00;1.00;;;;;15.27;70.40;101915.47;5048832;28;8877;-67
2022/05/27 02:10:32;;;;;;;;;1.00;1.00;;;;;15.30;69.98;101917.75;5050448;28;8848;-67
2022/05/27 02:13:10;;;;;;;;;1.00;1.00;;;;;15.31;70.13;101916.75;5047339;28;8818;-67
2022/05/27 02:15:45;;;;;;;;;1.00;1.00;;;;;15.31;70.12;101915.88;5065747;28;8891;-67
2022/05/27 02:18:31;;;;;;;;;1.00;1.00;;;;;15.23;70.03;101910.63;5049471;28;8913;-67
2022/05/27 02:21:05;;;;;;;;;0.67;0.67;;;;;15.20;70.10;101911.03;5048230;28;8885;-67
2022/05/27 02:23:57;;;;;;;;;1.00;1.00;;;;;15.23;69.88;101918.75;5050237;28;8986;-67
2022/05/27 02:26:30;;;;;;;;;2.00;1.00;;;;;15.25;70.11;101912.09;5049726;28;8834;-67
2022/05/27 02:29:06;;;;;;;;;0.00;0.00;;;;;15.25;69.82;101909.41;5050059;28;8942;-67
2022/05/27 02:31:36;;;;;;;;;1.00;1.00;;;;;15.23;69.58;101908.78;5049924;28;9044;-67
2022/05/27 02:37:12;;;;;;;;;1.00;1.00;;;;;15.24;69.21;101909.59;5048897;28;8945;-67
2022/05/27 02:39:38;;;;;;;;;2.67;0.00;;;;;15.20;68.69;101906.44;5049975;28;8826;-66
2022/05/27 02:42:23;;;;;;;;;1.00;1.00;;;;;15.18;68.97;101911.22;5049946;28;8995;-66
2022/05/27 02:44:57;;;;;;;;;1.67;1.00;;;;;15.18;68.74;101904.97;5050166;28;8899;-67
2022/05/27 02:47:27;;;;;;;;;1.00;1.00;;;;;15.18;68.42;101900.38;5049725;28;9832;-66
2022/05/27 02:50:06;;;;;;;;;1.00;1.00;;;;;15.18;68.67;101903.06;5049045;28;8901;-66
2022/05/27 02:52:46;;;;;;;;;1.33;1.33;;;;;15.19;68.17;101902.06;5049782;28;8909;-66
2022/05/27 02:55:18;;;;;;;;;1.00;1.00;;;;;15.17;68.13;101906.84;5050114;28;8917;-66
2022/05/27 02:57:50;;;;;;;;;2.00;1.00;;;;;15.15;68.33;101903.50;5028411;28;8966;-67
2022/05/27 03:00:24;;;;;;;;;2.00;2.00;;;;;15.16;68.47;101905.16;5029878;28;8837;-67
2022/05/27 03:02:51;;;;;;;;;1.00;0.67;;;;;15.15;68.13;101899.91;5047721;28;9121;-66
2022/05/27 03:05:22;;;;;;;;;0.00;0.00;;;;;15.11;68.11;101898.66;5049984;28;8925;-67
2022/05/27 03:08:22;;;;;;;;;6.00;2.00;;;;;15.12;68.39;101903.88;5047965;28;9000;-66
2022/05/27 03:11:01;;;;;;;;;2.25;2.25;;;;;15.11;67.85;101904.06;5049414;28;9064;-66
2022/05/27 03:13:46;;;;;;;;;0.67;0.67;;;;;15.12;68.30;101905.78;5047509;28;8857;-66
2022/05/27 03:16:45;;;;;;;;;0.00;0.00;;;;;15.07;67.97;101906.38;5049798;28;8919;-66
2022/05/27 03:19:35;;;;;;;;;2.67;1.00;;;;;15.04;67.91;101909.47;5007447;28;8866;-66
2022/05/27 03:22:17;;;;;;;;;3.00;1.00;;;;;15.04;68.03;101910.31;5038818;28;9063;-66
2022/05/27 03:25:21;;;;;;;;;1.67;1.00;;;;;15.04;68.05;101904.88;5053305;28;9013;-66
2022/05/27 03:28:06;;;;;;;;;1.00;1.00;;;;;15.04;68.26;101912.19;5030381;28;9201;-66
2022/05/27 03:30:43;;;;;;;;;1.00;1.00;;;;;15.06;67.85;101910.09;5053210;28;9034;-66
2022/05/27 03:33:28;;;;;;;;;2.25;1.00;;;;;15.09;68.06;101920.53;5037419;28;9075;-66
2022/05/27 03:36:19;;;;;;;;;0.25;0.25;;;;;15.11;67.81;101904.94;5033554;28;9484;-66
2022/05/27 03:38:45;;;;;;;;;0.00;0.00;;;;;15.15;67.98;101911.63;5036470;28;8837;-65
2022/05/27 03:41:21;;;;;;;;;1.00;1.00;;;;;15.17;67.77;101916.84;5041653;28;9059;-66
2022/05/27 03:43:49;;;;;;;;;0.75;0.75;;;;;15.15;67.59;101913.47;5052717;28;8984;-65
2022/05/27 03:46:30;;;;;;;;;2.00;1.00;;;;;15.17;68.28;101914.97;5052626;28;8833;-66
2022/05/27 03:48:57;;;;;;;;;2.00;2.00;;;;;15.18;67.88;101907.66;5032948;28;8915;-66
2022/05/27 03:51:28;;;;;;;;;1.00;1.00;;;;;15.15;67.94;101908.94;5033958;28;8983;-64
2022/05/27 03:54:03;;;;;;;;;1.33;1.33;;;;;15.14;68.27;101904.50;5051310;28;8994;-66
2022/05/27 03:56:39;;;;;;;;;1.00;1.00;;;;;15.13;68.17;101908.28;5034998;28;9162;-66
2022/05/27 03:59:08;;;;;;;;;1.33;1.33;;;;;15.08;68.28;101910.75;5034968;28;9040;-66
2022/05/27 04:01:36;;;;;;;;;1.67;1.67;;;;;15.03;68.45;101914.06;5052042;28;8995;-65
2022/05/27 04:04:06;;;;;;;;;0.00;0.00;;;;;15.05;68.74;101911.13;5052697;28;9112;-66
2022/05/27 04:06:33;;;;;;;;;1.00;1.00;;;;;15.08;68.95;101906.16;5052047;28;9145;-66
2022/05/27 04:08:59;;;;;;;;;2.00;1.00;;;;;15.09;68.76;101910.53;5052413;28;9029;-66
2022/05/27 04:11:30;;;;;;;;;1.67;1.00;;;;;15.09;68.71;101907.00;5051217;28;9055;-66
2022/05/27 04:13:57;;;;;;;;;2.00;1.67;;;;;15.10;68.40;101908.66;5052543;28;8936;-65
2022/05/27 04:16:24;;;;;;;;;0.67;0.67;;;;;15.09;68.42;101917.84;5050737;28;9075;-66
2022/05/27 04:18:51;;;;;;;;;1.00;1.00;;;;;15.07;68.27;101909.91;5051995;28;9075;-66
2022/05/27 04:21:18;;;;;;;;;2.67;2.00;;;;;15.06;68.24;101916.34;5052341;28;9183;-66
2022/05/27 04:23:44;;;;;;;;;1.33;1.33;;;;;15.02;67.80;101912.34;5032228;28;9058;-66
2022/05/27 04:26:11;;;;;;;;;2.00;1.00;;;;;14.95;67.74;101918.75;5032048;28;9053;-65
2022/05/27 04:28:38;;;;;;;;;2.00;1.00;;;;;14.94;67.42;101911.66;5051113;28;9168;-66
2022/05/27 04:31:04;;;;;;;;;1.00;1.00;;;;;14.98;67.65;101919.22;5051845;28;8935;-66
2022/05/27 04:33:31;;;;;;;;;1.67;1.67;;;;;14.96;67.38;101913.16;5050858;28;8822;-66
2022/05/27 04:36:00;;;;;;;;;3.00;2.00;;;;;14.93;67.02;101918.97;5052161;28;9051;-65
2022/05/27 04:38:28;;;;;;;;;0.75;0.00;;;;;14.89;67.09;101925.81;5050032;28;8971;-66
2022/05/27 04:40:54;;;;;;;;;1.00;1.00;;;;;14.92;67.28;101927.31;5052188;28;8869;-66
2022/05/27 04:43:21;;;;;;;;;3.00;2.00;;;;;14.90;66.99;101932.06;5051571;28;8933;-66
2022/05/27 04:45:49;;;;;;;;;1.00;1.00;;;;;14.90;67.09;101926.66;5052128;28;9062;-66
2022/05/27 04:48:18;;;;;;;;;1.00;1.00;;;;;14.86;66.68;101930.78;5051338;28;9140;-65
2022/05/27 04:50:46;;;;;;;;;2.67;1.00;;;;;14.84;66.22;101928.28;5049496;28;11021;-66
2022/05/27 04:53:13;;;;;;;;;1.33;1.33;;;;;14.79;65.54;101931.59;5041576;28;9097;-66
2022/05/27 04:55:41;;;;;;;;;3.00;2.33;;;;;14.74;64.86;101938.59;5031943;28;9155;-66
2022/05/27 04:58:08;;;;;;;;;2.50;1.50;;;;;14.73;64.83;101940.47;5046908;28;9057;-65
2022/05/27 05:00:39;;;;;;;;;2.67;1.00;;;;;14.75;64.41;101932.19;5051726;28;9821;-65
2022/05/27 05:03:05;;;;;;;;;2.33;2.33;;;;;14.76;63.63;101934.69;5052040;28;9068;-66
2022/05/27 05:05:34;;;;;;;;;1.00;1.00;;;;;14.79;63.75;101933.47;5051422;28;9304;-65
2022/05/27 05:08:13;;;;;;;;;1.00;1.00;;;;;14.82;63.36;101941.19;5044454;28;9198;-65
2022/05/27 05:10:40;;;;;;;;;1.00;1.00;;;;;14.79;62.41;101930.75;5031498;28;8984;-65
2022/05/27 05:13:06;;;;;;;;;2.67;1.00;;;;;14.79;62.06;101937.00;5046368;28;9064;-66
2022/05/27 05:15:33;;;;;;;;;1.00;1.00;;;;;14.77;62.69;101940.94;5051122;28;9288;-66
2022/05/27 05:18:00;;;;;;;;;2.33;2.33;;;;;14.80;62.32;101945.97;5050723;28;9071;-66
2022/05/27 05:20:29;;;;;;;;;2.00;2.00;;;;;14.81;61.82;101951.19;5051187;28;9785;-65
2022/05/27 05:22:56;;;;;;;;;2.00;1.67;;;;;14.80;61.87;101952.22;5050932;28;9746;-66
2022/05/27 05:25:23;;;;;;;;;2.00;2.00;;;;;14.80;60.52;101948.69;5050209;28;8990;-65
2022/05/27 05:27:51;;;;;;;;;2.00;2.00;;;;;14.72;59.92;101959.66;5050332;28;9017;-66
2022/05/27 05:30:21;;;;;;;;;5.00;2.00;;;;;14.71;58.84;101956.13;5050761;28;9239;-66
2022/05/27 05:32:47;;;;;;;;;2.00;2.00;;;;;14.64;57.14;101963.34;5050338;28;9222;-65
2022/05/27 05:35:15;;;;;;;;;3.00;2.33;;;;;14.62;57.14;101956.44;5049729;28;8986;-65
2022/05/27 05:37:42;;;;;;;;;1.00;1.00;;;;;14.70;57.14;101967.13;5050180;28;9067;-65
2022/05/27 05:40:10;;;;;;;;;1.00;1.00;;;;;14.81;57.09;101970.16;5050595;28;9097;-66
2022/05/27 05:42:38;;;;;;;;;3.67;2.00;;;;;14.91;57.74;101972.56;5050037;28;8974;-64
2022/05/27 05:45:06;;;;;;;;;5.00;3.00;;;;;14.92;57.19;101966.09;5050364;28;9073;-66
2022/05/27 05:47:32;;;;;;;;;2.00;2.00;;;;;14.93;56.86;101977.78;5048593;28;9224;-66
2022/05/27 05:49:59;;;;;;;;;2.00;2.00;;;;;14.93;57.02;101972.34;5050626;28;9069;-65
2022/05/27 05:52:25;;;;;;;;;5.67;4.00;;;;;14.94;56.34;101982.16;5050386;28;9087;-69
2022/05/27 05:54:52;;;;;;;;;0.75;0.75;;;;;15.00;57.28;101978.69;5050459;28;9109;-66
2022/05/27 05:57:19;;;;;;;;;2.00;2.00;;;;;15.02;56.88;101968.47;5049938;28;8838;-66
2022/05/27 05:59:45;;;;;;;;;1.00;1.00;;;;;14.97;56.44;101970.94;5049283;28;9115;-66
2022/05/27 06:02:12;;;;;;;;;2.00;2.00;;;;;15.00;56.15;101973.25;5047946;28;8949;-65
2022/05/27 06:04:38;;;;;;;;;2.00;2.00;;;;;15.00;55.74;101979.53;5030539;28;8980;-65
2022/05/27 06:07:11;;;;;;;;;2.33;2.33;;;;;14.98;56.06;101984.28;5037565;28;8951;-67
2022/05/27 06:09:37;;;;;;;;;1.00;1.00;;;;;14.97;55.67;102000.75;5050369;28;9067;-66
2022/05/27 06:12:04;;;;;;;;;2.00;2.00;;;;;14.92;55.49;101995.94;5041107;28;9076;-66
2022/05/27 06:14:31;;;;;;;;;1.00;1.00;;;;;14.88;55.25;101993.81;5030459;28;8915;-67
2022/05/27 06:16:57;;;;;;;;;2.00;2.00;;;;;14.89;55.36;101998.19;5045434;28;8977;-67
2022/05/27 06:19:24;;;;;;;;;2.67;1.67;;;;;14.88;54.91;101996.50;5050260;28;9005;-66
2022/05/27 06:21:50;;;;;;;;;1.33;1.00;;;;;14.86;54.78;101995.84;5050142;28;9039;-66
2022/05/27 06:24:17;;;;;;;;;2.00;2.00;;;;;14.83;54.67;102011.50;5050162;28;9057;-66
2022/05/27 06:26:44;;;;;;;;;2.00;2.00;;;;;14.78;54.38;102008.50;5049455;28;9017;-66
2022/05/27 06:34:42;;;;;;;;;2.67;2.00;;;;;14.76;54.64;102024.13;5050310;28;8984;-66
2022/05/27 06:37:12;;;;;;;;;2.00;1.67;;;;;14.79;55.15;102025.63;5048456;28;8987;-67
2022/05/27 06:39:40;;;;;;;;;2.00;1.33;;;;;14.82;55.54;102023.34;5050312;28;9040;-65
2022/05/27 06:42:09;;;;;;;;;4.67;4.33;;;;;14.76;54.84;102029.56;5050093;28;9149;-67
2022/05/27 06:44:56;;;;;;;;;4.33;1.00;;;;;14.69;55.10;102028.63;5050226;28;9169;-66
2022/05/27 06:47:24;;;;;;;;;2.67;2.67;;;;;14.74;55.48;102036.19;5049426;28;9102;-66
2022/05/27 06:49:50;;;;;;;;;3.33;2.00;;;;;14.78;55.43;102035.59;5050038;28;9132;-66
2022/05/27 06:52:17;;;;;;;;;2.67;2.67;;;;;14.77;54.52;102036.66;5048501;28;8977;-65
2022/05/27 06:54:43;;;;;;;;;4.67;3.00;;;;;14.73;54.71;102034.50;5050300;28;9062;-65
2022/05/27 06:57:11;;;;;;;;;1.00;1.00;;;;;14.75;56.86;102036.00;5052856;28;9083;-67
2022/05/27 06:59:37;;;;;;;;;2.00;2.00;;;;;14.80;55.52;102040.84;5054221;28;8999;-66
2022/05/27 07:02:06;;;;;;;;;2.00;2.00;;;;;14.79;54.73;102039.19;5053592;28;8997;-66
2022/05/27 07:04:32;;;;;;;;;1.33;1.00;;;;;14.82;54.63;102047.75;5053902;28;9238;-67
2022/05/27 07:06:59;;;;;;;;;6.00;3.67;;;;;14.83;54.25;102040.47;5053274;28;9689;-67
2022/05/27 07:09:26;;;;;;;;;2.67;2.67;;;;;14.84;54.30;102047.56;5053975;28;9177;-66
2022/05/27 07:11:55;;;;;;;;;2.00;2.00;;;;;14.83;54.49;102048.59;5052248;28;8995;-66
2022/05/27 07:14:22;;;;;;;;;2.00;2.00;;;;;14.81;54.66;102045.22;5035630;28;9247;-65
2022/05/27 07:16:49;;;;;;;;;5.67;5.00;;;;;14.81;54.79;102047.94;5053001;28;9287;-66
2022/05/27 07:19:34;;;;;;;;;2.00;1.67;;;;;14.86;55.27;102052.78;5053548;28;9241;-66
2022/05/27 07:22:02;;;;;;;;;3.00;3.00;;;;;14.93;55.04;102056.41;5053188;28;9230;-67
2022/05/27 07:24:28;;;;;;;;;4.33;2.00;;;;;14.91;53.39;102048.47;5053565;28;9245;-66
2022/05/27 07:26:55;;;;;;;;;1.67;1.33;;;;;14.93;54.12;102046.41;5051291;28;9938;-67
2022/05/27 07:29:21;;;;;;;;;3.33;2.67;;;;;14.94;53.98;102045.34;5053536;28;9306;-65
2022/05/27 07:31:47;;;;;;;;;4.00;2.00;;;;;14.95;54.32;102055.19;5053782;28;9068;-66
2022/05/27 07:34:14;;;;;;;;;5.00;3.00;;;;;14.98;52.89;102053.94;5039363;28;9118;-65
2022/05/27 07:36:41;;;;;;;;;8.33;3.67;;;;;14.92;52.76;102052.03;5036497;28;9885;-65
2022/05/27 07:39:08;;;;;;;;;4.67;3.00;;;;;14.93;53.07;102048.28;5053702;28;9858;-66
2022/05/27 07:41:35;;;;;;;;;2.00;2.00;;;;;14.96;52.99;102053.31;5052964;28;9159;-66
2022/05/27 07:44:03;;;;;;;;;5.33;4.00;;;;;15.00;53.66;102050.03;5053380;28;9329;-65
2022/05/27 07:46:32;;;;;;;;;6.67;3.00;;;;;15.01;53.74;102056.28;5052883;28;9239;-66
2022/05/27 07:48:58;;;;;;;;;2.67;2.67;;;;;15.11;53.69;102055.94;5037076;28;9139;-66
2022/05/27 07:51:46;;;;;;;;;3.00;2.00;;;;;15.15;53.06;102060.81;5034728;28;9148;-65
2022/05/27 07:54:13;;;;;;;;;3.67;3.67;;;;;15.13;51.67;102068.28;5033565;28;9111;-65
2022/05/27 07:56:40;;;;;;;;;1.00;1.00;;;;;15.09;51.39;102058.84;5034867;28;9150;-65
2022/05/27 07:59:06;;;;;;;;;5.67;3.00;;;;;15.05;51.75;102058.41;5052938;28;9073;-66
2022/05/27 08:01:33;;;;;;;;;3.33;3.33;;;;;14.96;51.22;102062.28;5052855;28;9114;-65
2022/05/27 08:04:00;;;;;;;;;2.67;1.00;;;;;14.86;50.54;102066.34;5052564;28;9142;-65
2022/05/27 08:06:26;;;;;;;;;1.67;1.00;;;;;14.83;51.10;102064.88;5052289;28;9083;-66
2022/05/27 08:08:53;;;;;;;;;2.00;2.00;;;;;14.92;52.30;102074.56;5050877;28;9209;-66
2022/05/27 08:11:19;;;;;;;;;5.00;4.00;;;;;15.02;52.39;102068.78;5051696;28;9347;-66
2022/05/27 08:13:45;;;;;;;;;2.50;1.00;;;;;15.09;51.55;102059.69;5040472;28;9257;-66
2022/05/27 08:16:12;;;;;;;;;4.67;3.00;;;;;15.19;51.53;102072.06;5033405;28;9074;-66
2022/05/27 08:18:39;;;;;;;;;2.00;1.00;;;;;15.22;51.72;102071.69;5052428;28;9082;-66
2022/05/27 08:21:09;;;;;;;;;2.67;1.67;;;;;15.25;52.07;102069.44;5051372;28;9667;-66
2022/05/27 08:23:35;;;;;;;;;2.00;1.50;;;;;15.29;52.25;102068.00;5052167;28;8950;-66
2022/05/27 08:26:02;;;;;;;;;5.00;5.00;;;;;15.28;51.14;102081.78;5052450;28;9637;-64
2022/05/27 08:28:29;;;;;;;;;2.33;2.33;;;;;15.29;50.92;102087.00;5051880;28;9006;-66
2022/05/27 08:30:55;;;;;;;;;2.00;2.00;;;;;15.26;50.57;102089.25;5051606;28;9687;-66
2022/05/27 08:33:24;;;;;;;;;5.00;1.67;;;;;15.16;50.62;102084.19;5052478;28;8991;-65
2022/05/27 08:38:38;;;;;;;;;3.00;3.00;;;;;15.09;50.91;102084.09;5051582;28;9805;-66
2022/05/27 08:41:29;;;;;;;;;3.33;3.00;;;;;15.19;50.66;102091.94;5051981;28;9224;-66
2022/05/27 08:44:02;;;;;;;;;2.67;2.33;;;;;15.30;51.33;102094.09;5038136;28;9843;-66
2022/05/27 08:46:41;;;;;;;;;2.33;2.00;;;;;15.35;51.11;102093.50;5051685;28;9137;-65
2022/05/27 08:49:17;;;;;;;;;0.67;0.67;;;;;15.27;52.16;102099.94;5051753;28;8921;-65
2022/05/27 08:51:49;;;;;;;;;2.67;2.67;;;;;15.25;52.67;102104.69;5051001;28;9027;-65
2022/05/27 08:54:24;;;;;;;;;2.33;1.67;;;;;15.29;52.73;102100.56;5040968;28;9066;-66
2022/05/27 08:59:42;;;;;;;;;2.00;2.00;;;;;15.33;52.50;102103.72;5051797;28;9200;-66
2022/05/27 09:02:22;;;;;;;;;2.00;2.00;;;;;15.43;51.28;102097.97;5051614;28;9155;-65
2022/05/27 09:05:17;;;;;;;;;2.67;2.67;;;;;15.51;50.36;102105.97;5052013;28;9071;-66
2022/05/27 09:08:10;;;;;;;;;2.00;2.00;;;;;15.49;48.95;102105.34;5040538;28;9223;-66
2022/05/27 09:11:16;;;;;;;;;2.00;2.00;;;;;15.52;49.55;102113.09;5050029;28;9131;-66
2022/05/27 09:13:58;;;;;;;;;6.33;3.67;;;;;15.65;48.77;102117.81;5033835;28;9061;-65
2022/05/27 09:16:42;;;;;;;;;3.00;3.00;;;;;15.66;48.50;102117.63;5050093;28;9055;-64
2022/05/27 09:19:41;;;;;;;;;3.00;3.00;;;;;15.76;48.61;102125.44;5031442;28;8999;-64
2022/05/27 09:22:33;;;;;;;;;2.67;2.67;;;;;15.89;48.69;102119.25;5037949;28;8984;-64
2022/05/27 09:25:17;;;;;;;;;3.00;3.00;;;;;15.79;48.79;102133.16;5049678;28;8994;-64
2022/05/27 09:28:02;;;;;;;;;2.00;2.00;;;;;15.83;49.10;102124.41;5050167;28;9011;-64
2022/05/27 09:30:32;;;;;;;;;4.33;1.33;;;;;15.87;49.12;102129.47;5051232;28;8986;-63
2022/05/27 09:33:09;;;;;;;;;1.00;1.00;;;;;15.94;48.04;102124.94;5050946;28;8982;-63
2022/05/27 09:35:42;;;;;;;;;3.67;2.00;;;;;16.06;47.46;102115.19;5044589;28;8895;-65
2022/05/27 09:38:17;;;;;;;;;3.25;2.00;;;;;16.07;47.23;102127.72;5050839;28;8930;-65
2022/05/27 09:40:53;;;;;;;;;5.50;2.50;;;;;15.95;46.20;102127.44;5051367;28;8810;-64
2022/05/27 09:43:42;;;;;;;;;2.25;2.00;;;;;15.99;47.50;102127.88;5050748;28;8883;-66
2022/05/27 09:46:23;;;;;;;;;2.00;2.00;;;;;16.01;47.03;102131.25;5050749;28;8907;-65
2022/05/27 09:48:49;;;;;;;;;1.25;1.25;;;;;16.07;46.23;102133.16;5037726;28;9518;-66
2022/05/27 09:51:18;;;;;;;;;3.75;2.75;;;;;16.19;47.23;102133.44;5050466;28;8846;-64
2022/05/27 09:53:51;;;;;;;;;1.00;1.00;;;;;16.22;46.69;102133.03;5031139;28;9531;-66
2022/05/27 09:56:42;;;;;;;;;2.33;2.33;;;;;16.03;47.04;102134.59;5031056;28;8923;-66
2022/05/27 09:59:21;;;;;;;;;5.33;1.00;;;;;15.96;47.21;102142.72;5050410;28;8997;-66
2022/05/27 10:01:48;;;;;;;;;3.67;2.00;;;;;15.83;46.46;102134.44;5050484;28;9713;-66
2022/05/27 10:04:16;;;;;;;;;1.00;1.00;;;;;15.70;46.19;102147.91;5050584;28;9686;-65
2022/05/27 10:06:44;;;;;;;;;2.33;2.33;;;;;15.63;47.20;102142.41;5048914;28;8830;-66
2022/05/27 10:09:28;;;;;;;;;3.00;1.00;;;;;15.65;47.15;102143.09;5050278;28;8994;-64
2022/05/27 10:11:58;;;;;;;;;2.00;2.00;;;;;15.72;46.80;102141.28;5050205;28;8986;-66
2022/05/27 10:14:33;;;;;;;;;3.00;2.33;;;;;15.61;45.75;102144.47;5050287;28;8974;-64
2022/05/27 10:17:13;;;;;;;;;2.00;2.00;;;;;15.69;47.20;102151.69;5049633;28;8997;-65
2022/05/27 10:19:48;;;;;;;;;2.50;1.50;;;;;15.88;46.42;102144.72;5050373;28;9062;-65
2022/05/27 10:22:29;;;;;;;;;2.00;1.00;;;;;15.92;45.35;102148.72;5048533;28;8805;-66
2022/05/27 10:25:00;;;;;;;;;5.33;3.00;;;;;15.89;45.84;102154.56;5050366;28;8907;-65
2022/05/27 10:27:39;;;;;;;;;1.00;1.00;;;;;15.98;45.35;102148.75;5049771;28;8999;-66
2022/05/27 10:30:25;;;;;;;;;2.00;1.00;;;;;16.06;45.62;102136.91;5049842;28;8911;-65
2022/05/27 10:32:52;;;;;;;;;4.00;2.67;;;;;16.04;45.50;102139.84;5053997;28;8822;-65
2022/05/27 10:35:27;;;;;;;;;3.25;2.50;;;;;16.02;45.35;102143.78;5053101;28;8926;-65
2022/05/27 10:38:12;;;;;;;;;2.25;2.25;;;;;16.08;45.90;102145.69;5053476;28;8830;-65
2022/05/27 10:41:03;;;;;;;;;2.25;1.75;;;;;15.97;46.28;102157.97;5054170;28;8832;-66
2022/05/27 10:43:55;;;;;;;;;1.25;1.00;;;;;15.95;46.32;102165.44;5052902;28;8876;-65
2022/05/27 10:46:28;;;;;;;;;2.00;1.00;;;;;15.98;47.03;102162.34;5035640;28;8845;-64
2022/05/27 10:49:19;;;;;;;;;1.00;1.00;;;;;16.09;46.33;102152.00;5034853;28;8941;-64
2022/05/27 10:52:23;;;;;;;;;2.75;1.75;;;;;16.14;45.92;102169.34;5053408;28;8927;-66
2022/05/27 10:55:11;;;;;;;;;1.25;1.25;;;;;16.08;45.92;102167.41;5053987;28;8817;-65
2022/05/27 11:04:12;;;;;;;;;1.75;0.50;;;;;16.16;45.68;102180.84;5033586;28;9574;-64
2022/05/27 11:06:56;;;;;;;;;0.75;0.75;;;;;16.11;45.17;102185.22;5051032;28;8826;-64
2022/05/27 11:09:35;;;;;;;;;2.00;1.00;;;;;16.27;45.06;102183.03;5053235;28;8919;-64
2022/05/27 11:12:02;;;;;;;;;1.25;0.50;;;;;16.36;45.00;102183.69;5050661;28;8829;-64
2022/05/27 11:15:10;;;;;;;;;0.00;0.00;;;;;16.32;44.23;102185.97;5051981;28;8903;-65
2022/05/27 11:18:29;;;;;;;;;2.00;1.00;;;;;16.34;44.71;102177.63;5052260;28;9745;-66
2022/05/27 11:21:28;;;;;;;;;2.25;1.00;;;;;16.21;45.67;102189.25;5045382;28;8825;-65
2022/05/27 11:24:25;;;;;;;;;1.00;1.00;;;;;16.05;46.16;102201.28;5033277;28;8894;-65
2022/05/27 11:27:04;;;;;;;;;0.75;0.75;;;;;16.01;46.43;102204.56;5037596;28;8885;-66
2022/05/27 11:29:55;;;;;;;;;4.00;1.25;;;;;16.02;46.04;102214.41;5052851;28;8868;-65
2022/05/27 11:32:40;;;;;;;;;1.25;1.25;;;;;15.98;45.96;102204.97;5052835;28;8851;-64
2022/05/27 11:35:09;;;;;;;;;1.25;1.00;;;;;16.02;45.73;102209.81;5053119;28;8814;-65
2022/05/27 11:37:52;;;;;;;;;4.33;2.00;;;;;16.09;46.08;102190.00;5051798;28;8896;-66
2022/05/27 11:40:24;;;;;;;;;1.50;1.00;;;;;16.03;44.21;102199.78;5051437;28;9636;-65
2022/05/27 11:43:01;;;;;;;;;0.50;0.50;;;;;15.91;45.22;102204.06;5066848;28;8837;-65
2022/05/27 11:45:30;;;;;;;;;5.50;1.75;;;;;15.78;45.70;102205.63;5052207;28;8875;-65
2022/05/27 11:48:13;;;;;;;;;0.00;0.00;;;;;15.78;46.60;102202.06;5038159;28;8840;-65
2022/05/27 11:51:25;;;;;;;;;1.00;1.00;;;;;15.89;46.35;102211.59;5032514;28;8853;-66
2022/05/27 11:54:08;;;;;;;;;2.00;1.00;;;;;16.04;46.66;102199.59;5004428;28;8940;-65
2022/05/27 11:57:15;;;;;;;;;1.50;1.00;;;;;16.12;45.58;102212.16;5034331;28;8838;-66
2022/05/27 11:59:49;;;;;;;;;3.00;0.00;;;;;16.15;46.20;102210.94;5051920;28;8829;-66
2022/05/27 12:02:37;;;;;;;;;1.00;0.75;;;;;16.18;46.06;102211.38;5052263;28;8931;-65
2022/05/27 12:05:26;;;;;;;;;1.25;0.25;;;;;16.34;46.07;102220.28;5036621;28;9587;-66
2022/05/27 12:08:05;;;;;;;;;1.75;1.00;;;;;16.31;46.15;102225.06;5045148;28;8915;-67
2022/05/27 12:10:44;;;;;;;;;0.50;0.50;;;;;16.29;46.03;102223.59;5050637;28;9605;-66
2022/05/27 12:13:35;;;;;;;;;1.00;0.25;;;;;16.19;46.29;102218.50;5050564;28;9513;-66
2022/05/27 12:16:14;;;;;;;;;3.75;2.00;;;;;16.11;45.85;102217.81;5051935;28;8822;-66
2022/05/27 12:18:46;;;;;;;;;1.00;1.00;;;;;16.15;46.65;102219.94;5050496;28;8833;-67
2022/05/27 12:21:18;;;;;;;;;10.00;3.00;;;;;16.19;46.09;102223.94;5052012;28;8833;-65
2022/05/27 12:23:51;;;;;;;;;2.00;2.00;;;;;16.37;45.46;102219.88;5032370;28;9680;-66
2022/05/27 12:26:29;;;;;;;;;4.00;1.25;;;;;16.44;44.96;102226.19;5031716;28;8856;-67
2022/05/27 12:28:59;;;;;;;;;0.75;0.75;;;;;16.36;45.50;102216.31;5051539;28;8833;-66
2022/05/27 12:31:27;;;;;;;;;2.00;1.75;;;;;16.26;45.82;102227.53;5050307;28;8802;-67